Jonesville, Vermont
Current Conditions -  °F | °C
As of 9:54 PM on Friday 21 Nov 2014 (Local Time) from KBTV Reporting Station
Broken Clouds Broken Clouds  
Wind Chill: 14°   Ceiling: 5500
Heat Index: 26°   Visibility: 10mi
Dew Point:   Wind: 16mph
Humidity: 47%   Direction: 270°W
Pressure: 30.36"   Gusts: 23mph
Location:  44.38°N, 72.94°W
Report Text: KBTV 220254Z 27014G20KT 10SM BKN055 M03/M13 A3036 RMK AO2 SLP287 T10331133 58002
Loading
Personal Weather Stations






























Interactive Weather Map New forecast layout! Learn more

10-Day Weather Forecast

Advertisements
Track Severe Weather on mobile